BND94M / G-VINF 7700 Squawk Report (19th of June, 2018)

Time Lat Lon Altitude Heading Speed Vertical Rate
2018-06-19 13:23:51 GMT 57.193954 -2.191944 200 332 47 -320
2018-06-19 13:23:43 GMT 57.192265 -2.190709 250 332 53 -320
2018-06-19 13:22:53 GMT 57.181961 -2.180443 425 323 68 -448
2018-06-19 13:22:50 GMT 57.181595 -2.179241 500 297 69 -320
2018-06-19 13:22:23 GMT 57.181091 -2.163448 625 271 82 -512
2018-06-19 13:22:20 GMT 57.181274 -2.161560 700 262 85 -192
2018-06-19 13:22:10 GMT 57.182629 -2.154649 725 248 92 -320
2018-06-19 13:22:00 GMT 57.184525 -2.148342 750 241 91 -256
2018-06-19 13:21:49 GMT 57.186951 -2.141991 800 235 93 0
2018-06-19 13:21:39 GMT 57.190201 -2.137356 800 213 96 -64
2018-06-19 13:21:08 GMT 57.204437 -2.132721 950 197 110 -256
2018-06-19 13:20:58 GMT 57.209244 -2.130318 925 202 106 -256
2018-06-19 13:20:32 GMT 57.221283 -2.123795 950 203 101 64
2018-06-19 13:20:26 GMT 57.223663 -2.122593 950 201 103 -128
2018-06-19 13:20:12 GMT 57.229660 -2.119503 950 201 106 -256
2018-06-19 13:20:05 GMT 57.232773 -2.117615 950 209 109 -64
2018-06-19 13:19:55 GMT 57.236862 -2.113982 950 211 107 0
2018-06-19 13:19:30 GMT 57.249252 -2.103539 950 211 107 0
2018-06-19 13:19:25 GMT 57.249756 -2.103024 950 209 108 64
2018-06-19 13:19:21 GMT 57.251633 -2.101650 950 210 110 0
2018-06-19 13:19:04 GMT 57.258362 -2.095985 975 210 107 64
2018-06-19 13:18:58 GMT 57.260925 -2.093754 975 210 99 192
2018-06-19 13:18:54 GMT 57.262482 -2.092552 950 210 99 64
2018-06-19 13:18:39 GMT 57.268478 -2.087917 950 210 110 192
2018-06-19 13:18:34 GMT 57.270721 -2.086201 950 208 110 0
2018-06-19 13:18:30 GMT 57.272568 -2.084833 950 207 111 -128
2018-06-19 13:17:45 GMT 57.290955 -2.068176 950 212 110 -128
2018-06-19 13:17:42 GMT 57.292145 -2.067146 975 212 106 192
2018-06-19 13:17:38 GMT 57.293701 -2.065601 950 211 106 128
2018-06-19 13:17:31 GMT 57.296448 -2.063198 950 211 109 -64
2018-06-19 13:17:27 GMT 57.298187 -2.061825 925 212 113 0
2018-06-19 13:17:21 GMT 57.300919 -2.059228 950 214 111 -64
2018-06-19 13:17:06 GMT 57.307251 -2.052727 950 215 119 256
2018-06-19 13:17:01 GMT 57.309311 -2.050495 950 215 116 -192
2018-06-19 13:16:24 GMT 57.324600 -2.033501 950 217 104 192
2018-06-19 13:16:15 GMT 57.328033 -2.029896 950 216 104 128
2018-06-19 13:15:07 GMT 57.355682 -1.999855 925 215 107 192
2018-06-19 13:15:02 GMT 57.357239 -1.998138 950 214 113 -320
2018-06-19 13:13:09 GMT 57.400818 -1.949730 950 218 104 0
2018-06-19 13:12:37 GMT 57.413177 -1.935997 975 217 108 256
2018-06-19 13:12:26 GMT 57.416611 -1.932049 950 218 103 0
2018-06-19 13:11:49 GMT 57.431030 -1.916599 925 216 119 -320
2018-06-19 13:11:42 GMT 57.434143 -1.913166 950 216 117 -320
2018-06-19 13:11:31 GMT 57.438950 -1.908188 950 216 122 0
2018-06-19 13:11:21 GMT 57.443226 -1.903559 950 216 124 -384
2018-06-19 13:10:56 GMT 57.454559 -1.891193 925 217 119 -448
2018-06-19 13:10:50 GMT 57.457123 -1.888103 975 217 116 384
2018-06-19 13:09:47 GMT 57.482895 -1.859436 950 216 113 128
2018-06-19 13:09:38 GMT 57.486465 -1.855488 950 216 113 64
2018-06-19 13:09:28 GMT 57.490952 -1.850338 950 218 113 -64
2018-06-19 13:08:40 GMT 57.512558 -1.827164 950 212 118 128
2018-06-19 13:08:36 GMT 57.513794 -1.825790 925 217 114 128
2018-06-19 13:08:24 GMT 57.518921 -1.819439 925 218 115 -128
2018-06-19 13:08:16 GMT 57.522171 -1.815319 950 218 115 -448
2018-06-19 13:06:58 GMT 57.554993 -1.774979 1,525 214 113 -576
2018-06-19 13:06:54 GMT 57.556503 -1.773090 1,625 217 112 -768
2018-06-19 13:06:23 GMT 57.570602 -1.756611 1,875 213 120 -576
2018-06-19 13:05:06 GMT 57.607864 -1.711121 1,950 216 125 0
2018-06-19 13:05:01 GMT 57.610245 -1.708202 1,950 216 126 -64
2018-06-19 13:04:44 GMT 57.618668 -1.697903 1,950 216 127 64
2018-06-19 13:04:41 GMT 57.620728 -1.695499 1,950 216 128 -64
2018-06-19 13:03:41 GMT 57.647507 -1.662884 1,950 221 111 64
2018-06-19 13:03:38 GMT 57.648880 -1.661339 1,950 220 113 -64
2018-06-19 13:02:26 GMT 57.680649 -1.622543 1,950 217 116 64
2018-06-19 13:02:15 GMT 57.685089 -1.617050 1,950 217 116 0
2018-06-19 13:01:43 GMT 57.698639 -1.600571 1,950 216 115 0
2018-06-19 13:00:33 GMT 57.727844 -1.564666 1,950 217 117 0
2018-06-19 13:00:30 GMT 57.729218 -1.562982 1,950 217 118 0
2018-06-19 12:59:15 GMT 57.760803 -1.523999 1,950 219 119 0
2018-06-19 12:59:07 GMT 57.764236 -1.519923 1,950 219 118 0
2018-06-19 12:58:02 GMT 57.791016 -1.486787 1,950 219 116 -64
2018-06-19 12:57:53 GMT 57.794632 -1.482446 1,950 219 116 64
2018-06-19 12:56:49 GMT 57.820175 -1.451081 1,950 220 114 -64
2018-06-19 12:56:40 GMT 57.823608 -1.446740 1,950 220 114 128
2018-06-19 12:56:04 GMT 57.838211 -1.428577 1,925 221 118 -64
2018-06-19 12:55:58 GMT 57.839767 -1.426539 1,925 221 121 -128
2018-06-19 12:54:02 GMT 57.887650 -1.367266 1,925 223 118 -64
2018-06-19 12:53:53 GMT 57.890900 -1.363191 1,925 222 118 0
2018-06-19 12:51:33 GMT 57.945328 -1.295501 1,925 222 119 -64
2018-06-19 12:51:26 GMT 57.948074 -1.292134 1,925 222 119 -64
2018-06-19 12:51:17 GMT 57.951691 -1.287438 1,925 222 119 0
2018-06-19 12:51:04 GMT 57.956680 -1.281413 1,925 221 119 0
2018-06-19 12:50:41 GMT 57.965927 -1.269807 1,925 222 118 -64
2018-06-19 12:50:34 GMT 57.968674 -1.266352 1,925 222 118 -64
2018-06-19 12:47:08 GMT 58.049522 -1.165558 1,925 223 117 0
2018-06-19 12:47:07 GMT 58.049522 -1.165558 1,925 223 116 0
We lost coverage of the aircraft here for a total of 12 minutes
2018-06-19 12:34:39 GMT 58.319550 -0.823797 3,425 228 104 -896
2018-06-19 12:34:27 GMT 58.323853 -0.818304 3,625 228 104 -896
2018-06-19 12:32:31 GMT 58.326782 -0.785700 4,975 19 113 -64
2018-06-19 12:32:25 GMT 58.323349 -0.789775 4,975 20 122 -256
2018-06-19 12:32:09 GMT 58.314240 -0.800762 5,025 18 130 0
2018-06-19 12:32:05 GMT 58.311813 -0.803508 5,000 20 134 0
2018-06-19 12:31:55 GMT 58.305496 -0.811305 5,000 20 134 0
2018-06-19 12:31:35 GMT 58.293457 -0.825835 5,000 20 133 0
2018-06-19 12:30:54 GMT 58.268921 -0.855870 5,000 19 134 64
2018-06-19 12:30:40 GMT 58.260864 -0.865882 5,000 19 135 0
2018-06-19 12:30:32 GMT 58.256195 -0.871552 5,000 19 135 0
2018-06-19 12:30:15 GMT 58.246078 -0.884045 5,000 19 135 128
2018-06-19 12:30:12 GMT 58.244202 -0.886260 5,000 20 137 0
2018-06-19 12:29:47 GMT 58.229095 -0.904511 5,000 18 140 0
2018-06-19 12:29:41 GMT 58.225479 -0.908941 5,000 20 140 64
2018-06-19 12:29:31 GMT 58.219299 -0.916472 5,000 21 140 0
2018-06-19 12:29:21 GMT 58.212936 -0.924358 5,000 21 141 0
2018-06-19 12:28:43 GMT 58.189774 -0.952710 5,000 21 137 0
2018-06-19 12:28:39 GMT 58.187393 -0.955633 5,000 21 135 0
2018-06-19 12:28:29 GMT 58.181351 -0.962810 5,000 21 134 0
2018-06-19 12:27:40 GMT 58.152191 -0.998072 5,000 20 132 0
2018-06-19 12:27:37 GMT 58.150635 -0.999933 5,025 21 132 0
2018-06-19 12:27:27 GMT 58.144272 -1.007641 5,000 22 132 64
2018-06-19 12:27:16 GMT 58.138111 -1.015411 5,000 22 133 0
2018-06-19 12:27:04 GMT 58.131088 -1.023944 5,000 21 134 -64
2018-06-19 12:26:55 GMT 58.125916 -1.029968 5,000 20 133 0
2018-06-19 12:26:45 GMT 58.119919 -1.037145 5,000 20 132 0
2018-06-19 12:26:13 GMT 58.101196 -1.060003 5,000 21 133 0
2018-06-19 12:26:04 GMT 58.095520 -1.066914 5,000 21 133 64
2018-06-19 12:25:28 GMT 58.074417 -1.092254 5,000 20 133 0
2018-06-19 12:25:22 GMT 58.070663 -1.096595 5,000 21 133 64
2018-06-19 12:25:11 GMT 58.064621 -1.104126 5,000 21 134 64
2018-06-19 12:24:40 GMT 58.045761 -1.126807 5,000 21 137 -64
2018-06-19 12:24:31 GMT 58.040085 -1.133630 5,000 22 136 -64
2018-06-19 12:24:20 GMT 58.033722 -1.141338 5,000 22 136 -128
2018-06-19 12:24:11 GMT 58.027878 -1.148438 5,000 22 134 -64
2018-06-19 12:23:58 GMT 58.020676 -1.157197 5,000 22 136 0
2018-06-19 12:23:49 GMT 58.015182 -1.163665 5,000 22 135 64
2018-06-19 12:22:58 GMT 57.984833 -1.200256 5,000 23 133 -64
2018-06-19 12:22:43 GMT 57.976044 -1.210534 5,000 23 132 -64
2018-06-19 12:22:38 GMT 57.972610 -1.214698 5,025 23 134 0
2018-06-19 12:22:27 GMT 57.966431 -1.222406 5,000 23 132 64
2018-06-19 12:22:17 GMT 57.959747 -1.230292 5,000 22 134 128
2018-06-19 12:22:01 GMT 57.951187 -1.240392 5,000 21 135 -64
2018-06-19 12:21:56 GMT 57.947754 -1.244379 5,025 20 133 64
2018-06-19 12:20:52 GMT 57.909439 -1.290362 5,000 19 137 -64
2018-06-19 12:20:44 GMT 57.904129 -1.296564 5,000 18 136 0
2018-06-19 12:20:33 GMT 57.897949 -1.303740 5,000 18 137 0
2018-06-19 12:20:01 GMT 57.877533 -1.328283 5,000 21 140 0
2018-06-19 12:19:53 GMT 57.872543 -1.333953 5,000 20 139 -64
2018-06-19 12:19:36 GMT 57.862061 -1.346711 5,025 21 138 64
2018-06-19 12:19:32 GMT 57.859680 -1.349635 5,025 23 135 128
2018-06-19 12:19:22 GMT 57.853500 -1.357343 5,000 22 131 0
2018-06-19 12:18:51 GMT 57.835281 -1.378607 5,000 17 118 0
2018-06-19 12:18:41 GMT 57.829613 -1.385101 5,000 16 117 0
2018-06-19 12:18:31 GMT 57.824295 -1.391277 5,000 16 115 128
2018-06-19 12:18:03 GMT 57.809189 -1.409351 5,000 19 122 0
2018-06-19 12:18:00 GMT 57.807129 -1.411743 5,000 21 124 -64
2018-06-19 12:17:50 GMT 57.801498 -1.418565 5,000 22 127 0
2018-06-19 12:17:35 GMT 57.792572 -1.429109 5,000 22 129 0
2018-06-19 12:17:29 GMT 57.789276 -1.432830 5,000 22 130 0
2018-06-19 12:17:18 GMT 57.783279 -1.440095 5,000 22 129 0
2018-06-19 12:17:08 GMT 57.777287 -1.447266 5,000 23 129 64
2018-06-19 12:16:47 GMT 57.765244 -1.461359 5,000 24 132 -64
2018-06-19 12:16:42 GMT 57.762360 -1.464814 5,000 24 132 -128
2018-06-19 12:16:03 GMT 57.739014 -1.492280 5,000 26 134 -64
2018-06-19 12:15:56 GMT 57.734711 -1.497419 5,000 27 136 -64
2018-06-19 12:15:50 GMT 57.730591 -1.502380 5,000 27 136 64
2018-06-19 12:15:45 GMT 57.728531 -1.504773 5,000 27 136 -64
2018-06-19 12:15:40 GMT 57.725418 -1.508560 5,000 27 137 0
2018-06-19 12:14:46 GMT 57.692642 -1.547184 5,025 26 131 192
2018-06-19 12:14:43 GMT 57.691452 -1.548557 5,025 24 131 0
2018-06-19 12:14:38 GMT 57.687653 -1.552849 5,025 24 130 256
2018-06-19 12:14:27 GMT 57.682159 -1.559372 5,000 24 126 -128
2018-06-19 12:14:23 GMT 57.679779 -1.562290 5,025 24 127 64
2018-06-19 12:13:44 GMT 57.657440 -1.588383 5,000 25 127 -64
2018-06-19 12:13:41 GMT 57.656250 -1.589756 5,000 24 128 0
2018-06-19 12:13:34 GMT 57.652496 -1.594391 5,000 26 128 128
2018-06-19 12:13:31 GMT 57.650574 -1.596451 5,000 26 126 -64
2018-06-19 12:13:21 GMT 57.644577 -1.603489 5,000 26 130 0
2018-06-19 12:12:50 GMT 57.626907 -1.624088 5,000 27 130 -64
2018-06-19 12:12:39 GMT 57.620728 -1.631641 5,000 29 129 -128
2018-06-19 12:11:51 GMT 57.592392 -1.664429 5,000 26 132 0
2018-06-19 12:11:48 GMT 57.591019 -1.666145 5,000 25 133 192
2018-06-19 12:11:30 GMT 57.580902 -1.677818 5,000 25 132 64
2018-06-19 12:11:27 GMT 57.579025 -1.680050 5,000 26 134 0
2018-06-19 12:11:19 GMT 57.574219 -1.685715 5,000 27 137 0
2018-06-19 12:11:16 GMT 57.572662 -1.687603 5,000 27 137 -64
2018-06-19 12:11:06 GMT 57.566483 -1.694813 5,000 26 139 192
2018-06-19 12:10:30 GMT 57.545197 -1.719704 5,000 26 142 64
2018-06-19 12:10:24 GMT 57.541260 -1.724339 5,000 25 139 0
2018-06-19 12:09:31 GMT 57.509674 -1.760902 5,025 24 137 64
2018-06-19 12:09:25 GMT 57.505554 -1.765709 5,000 23 137 -64
2018-06-19 12:09:22 GMT 57.504318 -1.767082 5,000 23 139 0
2018-06-19 12:08:39 GMT 57.479462 -1.796436 5,000 26 131 192
2018-06-19 12:08:31 GMT 57.474792 -1.801758 5,000 25 128 64
2018-06-19 12:08:20 GMT 57.468643 -1.808580 4,975 23 129 256
2018-06-19 12:08:08 GMT 57.461929 -1.816177 4,900 24 125 640
2018-06-19 12:08:00 GMT 57.457993 -1.820812 4,800 24 125 576
2018-06-19 12:07:49 GMT 57.452316 -1.827507 4,700 24 125 512
2018-06-19 12:07:29 GMT 57.441147 -1.840553 4,500 27 127 640
2018-06-19 12:07:19 GMT 57.435333 -1.847076 4,425 26 128 960
2018-06-19 12:06:27 GMT 57.407181 -1.879692 3,900 26 128 1024
2018-06-19 12:06:23 GMT 57.404938 -1.882439 3,825 26 126 512
2018-06-19 12:06:16 GMT 57.401005 -1.886902 3,750 25 130 512
2018-06-19 12:05:20 GMT 57.369919 -1.922092 3,275 24 126 768
2018-06-19 12:05:14 GMT 57.366852 -1.925869 3,150 24 125 896
2018-06-19 12:05:03 GMT 57.360489 -1.933594 3,025 26 129 256
2018-06-19 12:04:53 GMT 57.354450 -1.940327 2,975 24 136 320
2018-06-19 12:04:38 GMT 57.345566 -1.950588 2,900 25 134 -192
2018-06-19 12:04:33 GMT 57.342819 -1.953850 2,925 24 138 -192
2018-06-19 12:04:30 GMT 57.340897 -1.955910 2,925 24 138 64
2018-06-19 12:04:08 GMT 57.328033 -1.970673 2,925 24 141 192
2018-06-19 12:04:02 GMT 57.324280 -1.974792 2,925 23 140 64
2018-06-19 12:03:59 GMT 57.322540 -1.976852 2,900 23 140 -256
2018-06-19 12:03:42 GMT 57.311737 -1.989040 2,925 23 143 256
2018-06-19 12:02:43 GMT 57.276215 -2.030067 2,925 27 142 -128
2018-06-19 12:02:40 GMT 57.274475 -2.032127 2,925 24 142 0
2018-06-19 12:02:35 GMT 57.271545 -2.035389 2,925 24 140 256
2018-06-19 12:02:01 GMT 57.251633 -2.058048 2,925 26 137 128
2018-06-19 12:01:58 GMT 57.249756 -2.060108 2,925 26 137 192
2018-06-19 12:01:52 GMT 57.246323 -2.064400 2,925 26 136 -256
2018-06-19 12:01:48 GMT 57.244263 -2.066975 2,950 27 135 192
2018-06-19 12:01:44 GMT 57.242020 -2.069893 2,925 26 135 -64
2018-06-19 12:01:20 GMT 57.228836 -2.083969 2,950 18 121 128
2018-06-19 12:01:17 GMT 57.227280 -2.085686 2,925 17 120 0
2018-06-19 12:01:14 GMT 57.225403 -2.087574 2,925 20 117 192
2018-06-19 12:01:00 GMT 57.218857 -2.094784 2,925 22 109 -128
2018-06-19 12:00:56 GMT 57.217300 -2.097359 2,925 36 98 384
2018-06-19 12:00:53 GMT 57.216110 -2.099419 2,925 37 92 704
2018-06-19 12:00:15 GMT 57.203934 -2.122936 2,275 40 93 896
2018-06-19 12:00:12 GMT 57.202744 -2.125340 2,225 42 93 1024
2018-06-19 12:00:05 GMT 57.200684 -2.129631 2,100 42 92 1280
2018-06-19 11:59:28 GMT 57.188141 -2.153835 1,500 42 97 1152
2018-06-19 11:59:23 GMT 57.186584 -2.157269 1,275 42 97 896
2018-06-19 11:59:13 GMT 57.183517 -2.164822 1,150 60 97 960
2018-06-19 11:59:03 GMT 57.182816 -2.173875 1,000 97 92 768

Making use of Plane Finder data

You are free to use the raw flight data, aircraft information and images provided in this report for your own purposes provided the data is correctly attributed to Plane Finder. We ask that you please credit Plane Finder and link to planefinder.net in close proximity to the content.

Optionally one of the following logos (no smaller then 150x24px) can be used and must link to planefinder.net

Embedding the Plane Finder map

You are welcome to embed the Plane Finder playback map on your website to offer visitors a more interactive experience. We suggest using the following HTML code:

<iframe src="//planefinder.net/data/report/BND94M-G-VINF-7700-squawk-2018-06-19/map" width="800" height="600" seamless="seamless"></iframe>

Where our data comes from

Plane Finder has a global network of data feeds and antenna radars that receive data broadcast directly from aircraft. The primary technologies used are ADS-B and MLAT. We also show feeds from the FAA and a FLARM glider feed.

Click here to find out more about the Plane Finder network.

How we collect our data